Time,TemperatureF,DewpointF,PressureIn,WindDirection,WindDirectionDegrees,WindSpeedMPH,WindSpeedGustMPH,Humidity,HourlyPrecipIn,Conditions,Clouds,dailyrainin,SoftwareType,DateUTC
2013-08-01 00:01:00,65.1,56.3,29.15,WSW,248,0.0,0.0,73,0.00,,,0.00,WSDL version 420,2013-08-01 04:01:00,
2013-08-01 00:03:00,65.1,56.3,29.15,WSW,248,0.0,0.0,73,0.00,,,0.00,WSDL version 420,2013-08-01 04:03:00,
2013-08-01 00:05:00,65.1,56.3,29.15,WSW,248,0.0,0.0,73,-99.99,,,-99.99,WSDL version 420,2013-08-01 04:05:00,
2013-08-01 00:07:00,65.1,56.3,-100.00,WSW,248,0.0,0.0,73,-99.99,,,-99.99,WSDL version 420,2013-08-01 04:07:00,
2013-08-01 00:11:00,65.1,56.3,29.15,WSW,248,0.0,0.0,73,0.00,,,0.00,WSDL version 420,2013-08-01 04:11:00,
2013-08-01 00:18:00,64.9,56.1,29.15,WSW,248,0.0,0.0,73,0.00,,,0.00,WSDL version 420,2013-08-01 04:18:00,
2013-08-01 00:20:00,64.9,56.3,29.15,WSW,248,0.0,0.0,74,-99.99,,,-99.99,WSDL version 420,2013-08-01 04:20:00,
2013-08-01 00:27:00,64.8,56.3,-100.00,WSW,248,0.0,0.0,74,0.00,,,0.00,WSDL version 420,2013-08-01 04:27:00,
2013-08-01 00:33:00,64.8,56.4,29.15,WSW,248,0.0,0.0,75,0.00,,,0.00,WSDL version 420,2013-08-01 04:33:00,
2013-08-01 00:39:00,64.8,56.7,29.18,WSW,248,0.0,0.0,75,0.00,,,0.00,WSDL version 420,2013-08-01 04:39:00,
2013-08-01 00:48:00,64.9,56.8,29.18,WSW,248,0.0,0.0,75,0.00,,,0.00,WSDL version 420,2013-08-01 04:48:00,
2013-08-01 00:53:00,65.1,56.6,29.18,WSW,248,0.0,0.0,74,0.00,,,0.00,WSDL version 420,2013-08-01 04:53:00,
2013-08-01 01:02:00,65.1,57.0,29.15,WSW,248,0.0,0.0,75,0.00,,,0.00,WSDL version 420,2013-08-01 05:02:00,
2013-08-01 01:08:00,65.3,57.2,-100.00,WSW,248,0.0,0.0,75,0.00,,,0.00,WSDL version 420,2013-08-01 05:08:00,
2013-08-01 01:15:00,65.5,57.0,-100.00,WSW,248,0.0,0.0,74,0.00,,,0.00,WSDL version 420,2013-08-01 05:15:00,
2013-08-01 01:23:00,65.5,57.4,29.15,WSW,248,0.0,0.0,75,0.00,,,0.00,WSDL version 420,2013-08-01 05:23:00,
2013-08-01 01:30:00,65.5,57.5,-100.00,WSW,248,0.0,0.0,76,0.00,,,0.00,WSDL version 420,2013-08-01 05:30:00,
2013-08-01 01:36:00,65.5,57.6,29.15,WSW,248,0.0,0.0,75,0.00,,,0.00,WSDL version 420,2013-08-01 05:36:00,
2013-08-01 01:43:00,65.6,57.6,29.12,WSW,248,0.0,0.0,75,0.00,,,0.00,WSDL version 420,2013-08-01 05:43:00,
2013-08-01 01:50:00,65.7,57.5,29.12,WSW,248,0.0,0.0,75,0.00,,,0.00,WSDL version 420,2013-08-01 05:50:00,
2013-08-01 01:56:00,65.5,57.5,-100.00,WSW,248,0.0,0.0,75,-99.99,,,-99.99,WSDL version 420,2013-08-01 05:56:00,
2013-08-01 02:09:00,65.3,56.8,29.12,SSW,203,0.0,0.0,74,0.00,,,0.00,WSDL version 420,2013-08-01 06:09:00,
2013-08-01 02:14:00,65.1,56.3,29.12,SSW,203,0.0,0.0,73,0.00,,,0.00,WSDL version 420,2013-08-01 06:14:00,
2013-08-01 02:24:00,64.9,57.1,29.09,SSW,203,0.0,0.0,76,0.00,,,0.00,WSDL version 420,2013-08-01 06:24:00,
2013-08-01 02:30:00,64.8,56.8,-100.00,SSW,203,0.0,0.0,76,0.00,,,0.00,WSDL version 420,2013-08-01 06:30:00,
2013-08-01 02:36:00,64.6,56.7,29.09,SSW,203,0.0,0.0,75,0.00,,,0.00,WSDL version 420,2013-08-01 06:36:00,
2013-08-01 02:46:00,64.2,56.5,-100.00,SSW,203,0.0,0.0,76,0.00,,,0.00,WSDL version 420,2013-08-01 06:46:00,
2013-08-01 02:52:00,64.2,56.7,-100.00,SSW,203,0.0,0.0,77,0.00,,,0.00,WSDL version 420,2013-08-01 06:52:00,
2013-08-01 03:02:00,64.0,57.0,29.09,SSW,203,0.0,0.0,78,0.00,,,0.00,WSDL version 420,2013-08-01 07:02:00,
2013-08-01 03:07:00,64.0,57.4,-100.00,SSW,203,0.0,0.0,79,0.00,,,0.00,WSDL version 420,2013-08-01 07:07:00,
2013-08-01 03:14:00,64.0,57.4,29.06,SSW,203,0.0,0.0,79,-99.99,,,-99.99,WSDL version 420,2013-08-01 07:14:00,
2013-08-01 03:19:00,64.2,57.8,29.06,SSW,203,0.0,0.0,80,0.00,,,0.00,WSDL version 420,2013-08-01 07:19:00,
2013-08-01 03:25:00,64.2,57.7,29.09,SSW,203,0.0,0.0,80,0.00,,,0.00,WSDL version 420,2013-08-01 07:25:00,
2013-08-01 03:36:00,64.2,57.9,29.09,SSW,203,0.0,0.0,80,0.00,,,0.00,WSDL version 420,2013-08-01 07:36:00,
2013-08-01 03:42:00,64.2,57.9,29.09,SSW,203,0.0,0.0,80,0.00,,,0.00,WSDL version 420,2013-08-01 07:42:00,
2013-08-01 03:54:00,64.4,58.1,29.09,SSW,203,0.0,0.0,80,-99.99,,,-99.99,WSDL version 420,2013-08-01 07:54:00,
2013-08-01 04:03:00,64.6,58.7,29.09,South,191,0.0,0.0,81,0.00,,,0.00,WSDL version 420,2013-08-01 08:03:00,
2013-08-01 04:11:00,64.8,58.8,29.09,South,180,0.0,0.0,81,-99.99,,,-99.99,WSDL version 420,2013-08-01 08:11:00,
2013-08-01 04:23:00,65.0,59.1,29.09,SSW,193,0.0,0.0,81,0.00,,,0.00,WSDL version 420,2013-08-01 08:23:00,
2013-08-01 04:29:00,65.3,59.3,29.09,SSW,203,0.0,0.0,81,0.00,,,0.00,WSDL version 420,2013-08-01 08:29:00,
2013-08-01 04:38:00,66.1,60.3,29.09,SSW,203,0.0,0.0,81,0.00,,,0.00,WSDL version 420,2013-08-01 08:38:00,
2013-08-01 04:44:00,66.3,60.4,29.06,SSW,203,0.0,0.0,81,0.00,,,0.00,WSDL version 420,2013-08-01 08:44:00,
2013-08-01 04:52:00,66.7,60.4,-100.00,SW,214,0.0,0.0,80,-99.99,,,-99.99,WSDL version 420,2013-08-01 08:52:00,
2013-08-01 05:03:00,66.7,60.0,29.09,SSW,203,0.0,0.0,79,-99.99,,,-99.99,WSDL version 420,2013-08-01 09:03:00,
2013-08-01 05:09:00,66.7,60.0,29.06,SSW,207,0.0,0.0,79,0.00,,,0.00,WSDL version 420,2013-08-01 09:09:00,
2013-08-01 05:14:00,66.7,59.7,29.06,SSW,203,0.0,0.0,78,0.00,,,0.00,WSDL version 420,2013-08-01 09:14:00,
2013-08-01 05:28:00,66.6,59.5,29.06,SSW,203,0.0,0.0,78,0.00,,,0.00,WSDL version 420,2013-08-01 09:28:00,
2013-08-01 05:34:00,66.6,59.5,-100.00,SSW,203,0.0,0.0,78,0.00,,,0.00,WSDL version 420,2013-08-01 09:34:00,
2013-08-01 05:44:00,66.4,59.3,29.03,SSW,203,0.0,0.0,78,0.00,,,0.00,WSDL version 420,2013-08-01 09:44:00,
2013-08-01 05:50:00,66.4,59.3,-100.00,SSW,203,0.0,0.0,78,0.00,,,0.00,WSDL version 420,2013-08-01 09:50:00,
2013-08-01 06:03:00,66.4,59.6,29.06,SSW,203,0.0,0.0,78,0.00,,,0.00,WSDL version 420,2013-08-01 10:03:00,
2013-08-01 06:09:00,66.4,59.7,29.06,SSW,203,0.0,0.0,79,0.00,,,0.00,WSDL version 420,2013-08-01 10:09:00,
2013-08-01 06:18:00,66.4,59.6,-100.00,SSW,203,0.0,0.0,78,0.00,,,0.00,WSDL version 420,2013-08-01 10:18:00,
2013-08-01 06:30:00,66.2,59.5,29.06,SSW,203,0.0,0.0,79,0.00,,,0.00,WSDL version 420,2013-08-01 10:30:00,
2013-08-01 06:42:00,66.2,59.5,-100.00,SSW,203,0.0,0.0,79,0.00,,,0.00,WSDL version 420,2013-08-01 10:42:00,
2013-08-01 06:51:00,66.4,60.0,29.03,SSW,203,0.0,0.0,80,0.00,,,0.00,WSDL version 420,2013-08-01 10:51:00,
2013-08-01 07:12:00,66.6,60.5,29.03,SSW,203,0.0,0.0,81,0.00,,,0.00,WSDL version 420,2013-08-01 11:12:00,
2013-08-01 07:23:00,66.9,60.9,29.03,SSW,203,0.0,0.0,81,0.00,,,0.00,WSDL version 420,2013-08-01 11:23:00,
2013-08-01 07:29:00,67.1,61.1,-100.00,SSW,203,0.0,0.0,81,-99.99,,,-99.99,WSDL version 420,2013-08-01 11:29:00,
2013-08-01 07:36:00,67.4,61.4,29.03,SSW,203,0.0,0.0,81,-99.99,,,-99.99,WSDL version 420,2013-08-01 11:36:00,
2013-08-01 07:44:00,67.6,61.7,-100.00,South,191,0.0,0.0,82,0.00,,,0.00,WSDL version 420,2013-08-01 11:44:00,
2013-08-01 07:53:00,67.8,62.2,29.03,SW,225,0.0,0.0,82,0.00,,,0.00,WSDL version 420,2013-08-01 11:53:00,
2013-08-01 08:03:00,68.0,62.4,29.03,SW,225,0.0,0.0,82,0.00,,,0.00,WSDL version 420,2013-08-01 12:03:00,
2013-08-01 08:11:00,68.2,62.6,-100.00,SW,216,0.0,0.0,82,0.00,,,0.00,WSDL version 420,2013-08-01 12:11:00,
2013-08-01 08:19:00,68.3,62.6,29.03,SSW,210,0.0,0.0,82,0.00,,,0.00,WSDL version 420,2013-08-01 12:19:00,
2013-08-01 08:28:00,68.5,62.9,29.03,SSW,203,0.0,0.0,82,0.00,,,0.00,WSDL version 420,2013-08-01 12:28:00,
2013-08-01 08:34:00,68.5,62.6,-100.00,SSW,203,0.0,0.0,81,0.00,,,0.00,WSDL version 420,2013-08-01 12:34:00,
2013-08-01 08:43:00,68.7,62.7,29.03,SW,216,0.0,0.0,81,0.00,,,0.00,WSDL version 420,2013-08-01 12:43:00,
2013-08-01 08:49:00,68.9,62.9,-100.00,SW,214,0.0,0.0,81,0.00,,,0.00,WSDL version 420,2013-08-01 12:49:00,
2013-08-01 08:54:00,68.9,62.9,-100.00,SW,221,0.0,0.0,81,0.00,,,0.00,WSDL version 420,2013-08-01 12:54:00,
2013-08-01 09:01:00,68.7,62.7,-100.00,South,188,0.0,1.1,81,0.00,,,0.00,WSDL version 420,2013-08-01 13:01:00,
2013-08-01 09:07:00,68.6,62.9,29.03,SW,222,0.0,1.1,82,-99.99,,,-99.99,WSDL version 420,2013-08-01 13:07:00,
2013-08-01 09:15:00,68.4,63.2,29.03,SW,225,0.0,0.0,84,0.00,,,0.00,WSDL version 420,2013-08-01 13:15:00,
2013-08-01 09:21:00,68.4,63.5,-100.00,SSW,203,0.0,0.0,84,0.00,,,0.00,WSDL version 420,2013-08-01 13:21:00,
2013-08-01 09:28:00,68.5,64.4,29.03,South,188,0.0,0.0,87,0.00,,,0.00,WSDL version 420,2013-08-01 13:28:00,
2013-08-01 09:44:00,69.9,65.7,29.00,SSW,203,0.0,0.9,86,0.00,,,0.00,WSDL version 420,2013-08-01 13:44:00,
2013-08-01 09:50:00,69.6,65.1,29.00,SW,231,0.0,0.0,86,0.00,,,0.00,WSDL version 420,2013-08-01 13:50:00,
2013-08-01 10:03:00,69.6,65.5,29.03,West,260,0.0,0.0,87,0.00,,,0.00,WSDL version 420,2013-08-01 14:03:00,
2013-08-01 10:22:00,69.9,65.3,29.03,SW,234,0.0,0.0,86,0.00,,,0.00,WSDL version 420,2013-08-01 14:22:00,
2013-08-01 10:28:00,70.2,65.6,-100.00,SW,215,0.0,0.0,86,0.00,,,0.00,WSDL version 420,2013-08-01 14:28:00,
2013-08-01 10:41:00,70.4,65.4,29.03,SW,225,0.0,0.0,83,0.00,,,0.00,WSDL version 420,2013-08-01 14:41:00,
2013-08-01 10:53:00,70.5,64.5,29.03,SW,236,0.0,0.0,81,0.00,,,0.00,WSDL version 420,2013-08-01 14:53:00,
2013-08-01 11:06:00,70.9,64.8,-100.00,SW,225,0.0,0.0,81,-99.99,,,-99.99,WSDL version 420,2013-08-01 15:06:00,
2013-08-01 11:12:00,70.9,64.8,29.03,SW,225,0.0,0.0,81,0.00,,,0.00,WSDL version 420,2013-08-01 15:12:00,
2013-08-01 11:18:00,71.1,64.9,29.03,SSW,208,0.0,0.0,80,0.00,,,0.00,WSDL version 420,2013-08-01 15:18:00,
2013-08-01 11:23:00,71.6,65.1,29.00,SSW,203,0.0,0.0,80,0.00,,,0.00,WSDL version 420,2013-08-01 15:23:00,
2013-08-01 11:29:00,72.0,65.1,-100.00,SW,225,0.0,0.0,79,0.00,,,0.00,WSDL version 420,2013-08-01 15:29:00,
2013-08-01 11:40:00,72.5,65.0,29.00,SE,143,0.0,0.0,77,-99.99,,,-99.99,WSDL version 420,2013-08-01 15:40:00,
2013-08-01 11:46:00,73.7,66.4,29.00,SSE,158,0.0,0.0,78,0.00,,,0.00,WSDL version 420,2013-08-01 15:46:00,
2013-08-01 11:53:00,74.8,66.5,-100.00,SSW,194,0.0,0.0,75,-99.99,,,-99.99,WSDL version 420,2013-08-01 15:53:00,
2013-08-01 12:06:00,78.3,66.8,29.00,SW,214,0.0,0.0,68,0.00,,,0.00,WSDL version 420,2013-08-01 16:06:00,
2013-08-01 12:12:00,79.7,66.7,29.00,SW,225,0.0,0.0,64,-99.99,,,-99.99,WSDL version 420,2013-08-01 16:12:00,
2013-08-01 12:18:00,80.3,64.9,29.00,South,185,0.0,0.0,59,0.00,,,0.00,WSDL version 420,2013-08-01 16:18:00,
2013-08-01 12:30:00,78.2,61.7,-100.00,SW,236,0.0,0.0,57,0.00,,,0.00,WSDL version 420,2013-08-01 16:30:00,
2013-08-01 12:43:00,76.3,61.0,29.00,SW,236,0.0,0.0,59,0.00,,,0.00,WSDL version 420,2013-08-01 16:43:00,
2013-08-01 12:50:00,75.6,60.7,29.00,SW,225,0.0,0.0,60,0.00,,,0.00,WSDL version 420,2013-08-01 16:50:00,
2013-08-01 12:57:00,75.9,62.2,29.00,SSW,203,0.0,0.0,63,-99.99,,,-99.99,WSDL version 420,2013-08-01 16:57:00,
2013-08-01 13:03:00,77.2,63.4,-100.00,North,0,0.0,0.0,62,0.00,,,0.00,WSDL version 420,2013-08-01 17:03:00,
2013-08-01 13:13:00,78.0,61.5,-100.00,WSW,248,0.0,0.0,57,0.00,,,0.00,WSDL version 420,2013-08-01 17:13:00,
2013-08-01 13:25:00,76.8,60.6,-100.00,WNW,293,0.0,0.0,58,0.00,,,0.00,WSDL version 420,2013-08-01 17:25:00,
2013-08-01 13:33:00,76.9,61.8,-100.00,WNW,293,0.0,0.0,60,0.00,,,0.00,WSDL version 420,2013-08-01 17:33:00,
2013-08-01 13:42:00,77.0,62.4,29.00,North,-999,-999.0,-999.0,60,-99.99,,,-99.99,WSDL version 420,2013-08-01 17:42:00,
2013-08-01 13:52:00,80.1,64.9,-100.00,North,-999,-999.0,-999.0,60,0.00,,,0.00,WSDL version 420,2013-08-01 17:52:00,
2013-08-01 13:58:00,82.4,64.9,29.00,North,-999,-999.0,-999.0,55,-99.99,,,-99.99,WSDL version 420,2013-08-01 17:58:00,
2013-08-01 14:12:00,82.1,62.8,29.00,SSW,203,0.0,0.0,52,0.00,,,0.00,WSDL version 420,2013-08-01 18:12:00,
2013-08-01 14:20:00,82.6,61.8,29.00,SW,218,0.0,0.0,49,0.00,,,0.00,WSDL version 420,2013-08-01 18:20:00,
2013-08-01 14:26:00,82.4,60.5,-100.00,NW,320,0.0,0.0,46,0.00,,,0.00,WSDL version 420,2013-08-01 18:26:00,
2013-08-01 14:34:00,80.2,57.2,-100.00,NNW,347,0.9,2.9,45,0.00,,,0.00,WSDL version 420,2013-08-01 18:34:00,
2013-08-01 14:42:00,78.9,56.3,29.00,North,349,1.2,4.5,47,0.00,,,0.00,WSDL version 420,2013-08-01 18:42:00,
2013-08-01 14:54:00,78.6,57.3,29.00,NW,323,0.2,4.9,48,0.00,,,0.00,WSDL version 420,2013-08-01 18:54:00,
2013-08-01 15:06:00,78.1,56.9,29.00,NW,326,3.2,5.6,48,0.00,,,0.00,WSDL version 420,2013-08-01 19:06:00,
2013-08-01 15:12:00,77.8,55.9,29.00,NNW,338,3.1,4.0,47,0.00,,,0.00,WSDL version 420,2013-08-01 19:12:00,
2013-08-01 15:23:00,78.1,56.2,-100.00,NNW,342,2.0,4.9,47,0.00,,,0.00,WSDL version 420,2013-08-01 19:23:00,
2013-08-01 15:30:00,78.1,56.2,29.00,NNW,343,1.2,3.4,47,0.00,,,0.00,WSDL version 420,2013-08-01 19:30:00,
2013-08-01 15:45:00,78.4,56.6,29.00,NW,319,0.3,2.7,47,0.00,,,0.00,WSDL version 420,2013-08-01 19:45:00,
2013-08-01 16:06:00,78.1,54.9,29.00,North,354,1.8,4.7,44,0.00,,,0.00,WSDL version 420,2013-08-01 20:06:00,
2013-08-01 16:15:00,77.4,53.8,-100.00,NNW,338,0.0,3.1,44,0.00,,,0.00,WSDL version 420,2013-08-01 20:15:00,
2013-08-01 16:23:00,77.4,54.1,29.03,NNW,338,0.0,1.6,45,-99.99,,,-99.99,WSDL version 420,2013-08-01 20:23:00,
2013-08-01 16:35:00,78.1,55.6,29.03,NW,326,0.0,2.5,46,0.00,,,0.00,WSDL version 420,2013-08-01 20:35:00,
2013-08-01 16:47:00,77.9,54.9,-100.00,NNW,338,0.0,6.5,45,0.00,,,0.00,WSDL version 420,2013-08-01 20:47:00,
2013-08-01 16:49:00,77.9,54.9,-100.00,NNW,342,0.0,2.9,45,-99.99,,,-99.99,WSDL version 420,2013-08-01 20:49:00,
2013-08-01 16:58:00,77.2,54.8,29.03,NNW,347,0.0,0.0,46,0.00,,,0.00,WSDL version 420,2013-08-01 20:58:00,
2013-08-01 17:04:00,77.1,54.8,-100.00,NNW,344,0.0,0.0,46,-99.99,,,-99.99,WSDL version 420,2013-08-01 21:04:00,
2013-08-01 17:18:00,75.9,54.8,29.00,NNW,347,0.0,0.0,48,0.00,,,0.00,WSDL version 420,2013-08-01 21:18:00,
2013-08-01 17:24:00,76.1,55.0,-100.00,NW,326,0.0,0.0,48,0.00,,,0.00,WSDL version 420,2013-08-01 21:24:00,
2013-08-01 17:49:00,75.7,54.7,29.03,NW,308,0.0,0.0,48,0.00,,,0.00,WSDL version 420,2013-08-01 21:49:00,
2013-08-01 18:02:00,75.4,54.4,29.03,North,360,0.0,0.0,48,0.00,,,0.00,WSDL version 420,2013-08-01 22:02:00,
2013-08-01 18:09:00,75.6,54.5,29.03,NNW,332,0.0,2.7,48,0.00,,,0.00,WSDL version 420,2013-08-01 22:09:00,
2013-08-01 18:16:00,75.4,53.2,-100.00,North,11,0.0,2.7,46,0.00,,,0.00,WSDL version 420,2013-08-01 22:16:00,
2013-08-01 18:22:00,75.1,53.6,-100.00,NNW,334,0.0,0.0,47,0.00,,,0.00,WSDL version 420,2013-08-01 22:22:00,
2013-08-01 18:30:00,74.9,53.9,29.00,North,5,0.0,0.0,48,0.00,,,0.00,WSDL version 420,2013-08-01 22:30:00,
2013-08-01 18:36:00,75.3,54.1,29.00,NNW,330,0.0,0.0,47,0.00,,,0.00,WSDL version 420,2013-08-01 22:36:00,
2013-08-01 18:53:00,74.3,52.8,29.00,North,360,0.0,0.0,47,0.00,,,0.00,WSDL version 420,2013-08-01 22:53:00,
2013-08-01 18:59:00,74.1,53.2,29.03,North,360,0.0,0.0,48,0.00,,,0.00,WSDL version 420,2013-08-01 22:59:00,
2013-08-01 19:09:00,73.4,53.1,-100.00,North,-999,-999.0,-999.0,49,0.00,,,0.00,WSDL version 420,2013-08-01 23:09:00,
2013-08-01 19:25:00,72.9,53.2,-100.00,North,-999,-999.0,-999.0,50,-99.99,,,-99.99,WSDL version 420,2013-08-01 23:25:00,
2013-08-01 19:35:00,72.7,53.6,29.03,North,-999,-999.0,-999.0,51,0.00,,,0.00,WSDL version 420,2013-08-01 23:35:00,
2013-08-01 19:47:00,72.3,53.7,29.03,North,-999,-999.0,-999.0,52,0.00,,,0.00,WSDL version 420,2013-08-01 23:47:00,
2013-08-01 19:58:00,71.7,53.7,-100.00,North,-999,-999.0,-999.0,53,-99.99,,,-99.99,WSDL version 420,2013-08-01 23:58:00,
2013-08-01 20:04:00,71.5,53.8,29.03,North,-999,-999.0,-999.0,54,0.00,,,0.00,WSDL version 420,2013-08-02 00:04:00,
2013-08-01 20:12:00,70.9,53.7,29.03,North,-999,-999.0,-999.0,55,0.00,,,0.00,WSDL version 420,2013-08-02 00:12:00,
2013-08-01 20:17:00,70.3,53.9,29.03,North,-999,-999.0,-999.0,56,0.00,,,0.00,WSDL version 420,2013-08-02 00:17:00,
2013-08-01 20:23:00,70.1,53.8,29.03,North,-999,-999.0,-999.0,57,-99.99,,,-99.99,WSDL version 420,2013-08-02 00:23:00,
2013-08-01 20:38:00,68.9,54.5,29.03,North,-999,-999.0,-999.0,60,-99.99,,,-99.99,WSDL version 420,2013-08-02 00:38:00,
2013-08-01 20:44:00,68.5,54.6,29.03,North,-999,-999.0,-999.0,61,0.00,,,0.00,WSDL version 420,2013-08-02 00:44:00,
2013-08-01 20:50:00,68.2,54.7,29.03,North,-999,-999.0,-999.0,62,0.00,,,0.00,WSDL version 420,2013-08-02 00:50:00,
2013-08-01 20:57:00,67.6,55.0,29.03,North,-999,-999.0,-999.0,64,0.00,,,0.00,WSDL version 420,2013-08-02 00:57:00,
2013-08-01 21:03:00,67.5,55.0,-100.00,North,-999,-999.0,-999.0,65,0.00,,,0.00,WSDL version 420,2013-08-02 01:03:00,
2013-08-01 21:17:00,66.9,55.6,-100.00,North,-999,-999.0,-999.0,67,0.00,,,0.00,WSDL version 420,2013-08-02 01:17:00,
2013-08-01 21:23:00,66.7,55.1,-100.00,North,-999,-999.0,-999.0,67,0.00,,,0.00,WSDL version 420,2013-08-02 01:23:00,
2013-08-01 21:29:00,66.5,55.8,29.03,North,-999,-999.0,-999.0,68,-99.99,,,-99.99,WSDL version 420,2013-08-02 01:29:00,
2013-08-01 21:35:00,66.2,55.7,29.03,North,-999,-999.0,-999.0,69,0.00,,,0.00,WSDL version 420,2013-08-02 01:35:00,
2013-08-01 21:43:00,65.9,55.9,-100.00,North,-999,-999.0,-999.0,70,-99.99,,,-99.99,WSDL version 420,2013-08-02 01:43:00,
2013-08-01 21:49:00,65.6,55.6,-100.00,North,-999,-999.0,-999.0,70,0.00,,,0.00,WSDL version 420,2013-08-02 01:49:00,
2013-08-01 21:55:00,65.3,55.2,29.06,North,-999,-999.0,-999.0,70,0.00,,,0.00,WSDL version 420,2013-08-02 01:55:00,
2013-08-01 22:05:00,64.8,55.5,-100.00,North,-999,-999.0,-999.0,72,0.00,,,0.00,WSDL version 420,2013-08-02 02:05:00,
2013-08-01 22:13:00,64.6,55.4,29.06,North,-999,-999.0,-999.0,72,0.00,,,0.00,WSDL version 420,2013-08-02 02:13:00,
2013-08-01 22:18:00,64.4,55.8,29.06,North,-999,-999.0,-999.0,73,0.00,,,0.00,WSDL version 420,2013-08-02 02:18:00,
2013-08-01 22:27:00,64.2,56.1,-100.00,North,-999,-999.0,-999.0,75,0.00,,,0.00,WSDL version 420,2013-08-02 02:27:00,
2013-08-01 22:35:00,64.2,56.1,29.06,North,-999,-999.0,-999.0,75,0.00,,,0.00,WSDL version 420,2013-08-02 02:35:00,
2013-08-01 22:40:00,64.0,56.3,29.06,North,-999,-999.0,-999.0,76,0.00,,,0.00,WSDL version 420,2013-08-02 02:40:00,
2013-08-01 22:49:00,63.9,56.2,-100.00,West,270,0.0,0.0,76,0.00,,,0.00,WSDL version 420,2013-08-02 02:49:00,
2013-08-01 22:55:00,63.7,56.3,29.06,West,270,0.0,0.0,77,0.00,,,0.00,WSDL version 420,2013-08-02 02:55:00,
2013-08-01 23:02:00,63.7,56.7,29.06,West,270,0.0,0.0,78,0.00,,,0.00,WSDL version 420,2013-08-02 03:02:00,
2013-08-01 23:08:00,63.9,56.9,-100.00,North,0,0.0,0.0,78,0.00,,,0.00,WSDL version 420,2013-08-02 03:08:00,
2013-08-01 23:13:00,63.9,57.1,-100.00,West,270,0.0,0.0,78,-99.99,,,-99.99,WSDL version 420,2013-08-02 03:13:00,
2013-08-01 23:19:00,63.8,57.1,29.06,West,270,0.0,0.0,79,-99.99,,,-99.99,WSDL version 420,2013-08-02 03:19:00,
2013-08-01 23:29:00,63.7,57.4,29.06,West,270,0.0,0.0,80,0.00,,,0.00,WSDL version 420,2013-08-02 03:29:00,
2013-08-01 23:35:00,63.7,57.5,29.06,West,270,0.0,0.0,80,0.00,,,0.00,WSDL version 420,2013-08-02 03:35:00,
2013-08-01 23:43:00,63.8,57.5,29.06,West,270,0.0,0.0,80,0.00,,,0.00,WSDL version 420,2013-08-02 03:43:00,
2013-08-01 23:49:00,63.9,57.8,29.06,West,270,0.0,0.0,81,0.00,,,0.00,WSDL version 420,2013-08-02 03:49:00,
2013-08-01 23:55:00,63.9,58.0,29.06,West,270,0.0,0.0,81,0.00,,,0.00,WSDL version 420,2013-08-02 03:55:00,